createdAt,value
2023-01-09T00:01:57.394Z,100.00
2023-01-09T00:06:59.685Z,100.00
2023-01-09T00:12:02.772Z,100.00
2023-01-09T00:17:04.866Z,100.00
2023-01-09T00:22:09.563Z,100.00
2023-01-09T00:27:12.498Z,100.00
2023-01-09T00:32:14.712Z,100.00
2023-01-09T00:37:16.880Z,100.00
2023-01-09T00:42:29.930Z,100.00
2023-01-09T00:47:43.250Z,100.00
2023-01-09T00:52:47.232Z,100.00
2023-01-09T00:57:49.738Z,100.00
2023-01-09T01:02:51.887Z,100.00
2023-01-09T01:07:53.884Z,100.00
2023-01-09T01:12:55.901Z,100.00
2023-01-09T01:17:58.417Z,100.00
2023-01-09T01:23:00.596Z,100.00
2023-01-09T01:28:02.582Z,100.00
2023-01-09T01:33:04.611Z,100.00
2023-01-09T01:38:06.624Z,100.00
2023-01-09T01:43:12.914Z,100.00
2023-01-09T01:48:30.065Z,100.00
2023-01-09T01:53:43.504Z,100.00
2023-01-09T01:59:06.259Z,100.00
2023-01-09T02:04:09.309Z,100.00
2023-01-09T02:09:15.284Z,100.00
2023-01-09T02:14:18.240Z,100.00
2023-01-09T02:20:22.670Z,100.00
2023-01-09T02:25:55.411Z,100.00
2023-01-09T02:31:28.247Z,100.00
2023-01-09T02:37:10.963Z,100.00
2023-01-09T02:42:25.317Z,100.00
2023-01-09T02:47:30.551Z,100.00
2023-01-09T02:52:41.478Z,100.00
2023-01-09T02:58:14.662Z,100.00
2023-01-09T03:03:29.536Z,100.00
2023-01-09T03:08:43.590Z,100.00
2023-01-09T03:13:53.447Z,100.00
2023-01-09T03:18:58.563Z,100.00
2023-01-09T03:24:02.900Z,100.00
2023-01-09T03:29:04.967Z,100.00
2023-01-09T03:34:07.004Z,100.00
2023-01-09T03:39:08.995Z,100.00
2023-01-09T03:44:11.030Z,100.00
2023-01-09T03:49:14.085Z,100.00
2023-01-09T03:54:16.525Z,100.00
2023-01-09T03:59:18.778Z,100.00
2023-01-09T04:04:20.818Z,100.00
2023-01-09T04:09:23.035Z,100.00
2023-01-09T04:14:25.163Z,100.00
2023-01-09T04:19:27.200Z,100.00
2023-01-09T04:24:29.434Z,100.00
2023-01-09T04:29:31.442Z,100.00
2023-01-09T04:34:33.495Z,100.00
2023-01-09T04:39:35.698Z,100.00
2023-01-09T04:44:38.368Z,100.00
2023-01-09T04:49:40.701Z,100.00
2023-01-09T04:54:42.677Z,100.00
2023-01-09T04:59:45.174Z,100.00
2023-01-09T05:04:47.403Z,100.00
2023-01-09T05:09:49.671Z,100.00
2023-01-09T05:14:51.789Z,100.00
2023-01-09T05:19:54.122Z,100.00
2023-01-09T05:24:56.735Z,100.00
2023-01-09T05:29:58.963Z,100.00
2023-01-09T05:35:01.000Z,100.00
2023-01-09T05:40:04.038Z,100.00
2023-01-09T05:45:07.580Z,100.00
2023-01-09T05:50:14.591Z,100.00
2023-01-09T05:55:17.785Z,100.00
2023-01-09T06:00:20.196Z,100.00
2023-01-09T06:05:22.211Z,100.00
2023-01-09T06:10:24.204Z,100.00
2023-01-09T06:15:26.435Z,100.00
2023-01-09T06:20:28.664Z,100.00
2023-01-09T06:25:30.726Z,100.00
2023-01-09T06:30:34.128Z,100.00
2023-01-09T06:35:36.250Z,100.00
2023-01-09T06:40:38.386Z,100.00
2023-01-09T06:45:42.520Z,100.00
2023-01-09T06:50:46.017Z,100.00
2023-01-09T06:55:48.265Z,100.00
2023-01-09T07:00:50.429Z,100.00
2023-01-09T07:05:52.658Z,100.00
2023-01-09T07:10:54.745Z,100.00
2023-01-09T07:15:56.802Z,100.00
2023-01-09T07:20:58.827Z,100.00
2023-01-09T07:26:01.620Z,100.00
2023-01-09T07:31:04.828Z,100.00
2023-01-09T07:36:07.504Z,100.00
2023-01-09T07:41:09.857Z,100.00
2023-01-09T07:46:12.125Z,100.00
2023-01-09T07:51:14.694Z,100.00
2023-01-09T07:56:16.845Z,100.00
2023-01-09T08:01:18.994Z,100.00
2023-01-09T08:06:21.112Z,100.00
2023-01-09T08:11:23.434Z,100.00
2023-01-09T08:16:25.571Z,100.00
2023-01-09T08:21:27.647Z,100.00
2023-01-09T08:26:29.717Z,100.00
2023-01-09T08:31:31.805Z,100.00
2023-01-09T08:36:33.970Z,100.00
2023-01-09T08:41:54.781Z,100.00
2023-01-09T08:47:05.674Z,100.00
2023-01-09T08:52:08.027Z,100.00
2023-01-09T08:57:10.199Z,100.00
2023-01-09T09:02:12.305Z,100.00
2023-01-09T09:07:14.901Z,100.00
2023-01-09T09:12:17.058Z,100.00
2023-01-09T09:17:19.067Z,100.00
2023-01-09T09:22:21.307Z,100.00
2023-01-09T09:27:23.467Z,100.00
2023-01-09T09:32:25.584Z,100.00
2023-01-09T09:37:27.799Z,100.00
2023-01-09T09:43:06.879Z,100.00
2023-01-09T09:48:33.760Z,100.00
2023-01-09T09:53:55.732Z,100.00
2023-01-09T09:59:11.301Z,100.00
2023-01-09T10:04:18.457Z,100.00
2023-01-09T10:09:51.387Z,100.00
2023-01-09T10:14:59.239Z,95.27
2023-01-09T10:20:44.993Z,100.00
2023-01-09T10:26:11.954Z,100.00
2023-01-09T10:31:27.791Z,100.00
2023-01-09T10:37:00.206Z,100.00
2023-01-09T10:42:34.457Z,100.00
2023-01-09T10:47:40.915Z,100.00
2023-01-09T10:52:43.991Z,100.00
2023-01-09T10:58:02.340Z,100.00
2023-01-09T11:03:04.515Z,100.00
2023-01-09T11:08:09.797Z,100.00
2023-01-09T11:13:38.428Z,100.00
2023-01-09T11:18:57.764Z,100.00
2023-01-09T11:24:22.412Z,100.00
2023-01-09T11:29:24.685Z,95.10
2023-01-09T11:34:33.659Z,97.71
2023-01-09T11:39:41.850Z,92.86
2023-01-09T11:44:44.136Z,94.22
2023-01-09T11:49:51.320Z,82.34
2023-01-09T11:55:05.949Z,87.05
2023-01-09T12:00:24.253Z,93.05
2023-01-09T12:05:51.126Z,94.11
2023-01-09T12:11:33.158Z,93.34
2023-01-09T12:17:27.600Z,92.49
2023-01-09T12:22:48.891Z,91.47
2023-01-09T12:28:44.590Z,92.88
2023-01-09T12:34:25.995Z,97.09
2023-01-09T12:40:12.542Z,99.43
2023-01-09T12:45:55.920Z,97.73
2023-01-09T12:51:28.471Z,100.00
2023-01-09T12:56:41.028Z,100.00
2023-01-09T13:01:48.826Z,100.00
2023-01-09T13:06:58.374Z,100.00
2023-01-09T13:12:21.511Z,100.00
2023-01-09T13:17:39.094Z,100.00
2023-01-09T13:22:43.622Z,100.00
2023-01-09T13:27:57.981Z,100.00
2023-01-09T13:33:17.675Z,100.00
2023-01-09T13:38:24.209Z,100.00
2023-01-09T13:43:26.281Z,100.00
2023-01-09T13:48:40.501Z,100.00
2023-01-09T13:53:45.631Z,100.00
2023-01-09T13:59:00.269Z,100.00
2023-01-09T14:04:21.258Z,100.00
2023-01-09T14:09:23.691Z,100.00
2023-01-09T14:14:33.257Z,100.00
2023-01-09T14:19:38.837Z,100.00
2023-01-09T14:24:46.709Z,100.00
2023-01-09T14:29:49.007Z,100.00
2023-01-09T14:34:57.959Z,100.00
2023-01-09T14:40:00.710Z,99.75
2023-01-09T14:45:19.379Z,100.00
2023-01-09T14:50:58.635Z,100.00
2023-01-09T14:56:06.793Z,100.00
2023-01-09T15:01:18.959Z,100.00
2023-01-09T15:06:31.093Z,100.00
2023-01-09T15:11:37.199Z,100.00
2023-01-09T15:16:39.437Z,100.00
2023-01-09T15:21:58.439Z,100.00
2023-01-09T15:27:11.183Z,98.98
2023-01-09T15:32:26.720Z,100.00
2023-01-09T15:37:33.178Z,100.00
2023-01-09T15:42:58.527Z,100.00
2023-01-09T15:48:24.649Z,100.00
2023-01-09T15:53:29.219Z,100.00
2023-01-09T15:58:40.893Z,100.00
2023-01-09T16:03:43.462Z,100.00
2023-01-09T16:08:55.828Z,100.00
2023-01-09T16:14:17.600Z,100.00
2023-01-09T16:19:48.995Z,100.00
2023-01-09T16:24:55.787Z,100.00
2023-01-09T16:30:02.524Z,100.00
2023-01-09T16:35:14.379Z,100.00
2023-01-09T16:40:24.409Z,100.00
2023-01-09T16:45:40.960Z,100.00
2023-01-09T16:50:44.574Z,100.00
2023-01-09T16:55:47.186Z,100.00
2023-01-09T17:00:49.439Z,100.00
2023-01-09T17:06:00.923Z,100.00
2023-01-09T17:11:04.175Z,100.00
2023-01-09T17:16:07.017Z,100.00
2023-01-09T17:21:24.940Z,100.00
2023-01-09T17:26:45.459Z,100.00
2023-01-09T17:31:47.775Z,100.00
2023-01-09T17:36:49.879Z,100.00
2023-01-09T17:41:52.541Z,100.00
2023-01-09T17:46:55.319Z,100.00
2023-01-09T17:51:57.383Z,100.00
2023-01-09T17:57:01.481Z,100.00
2023-01-09T18:02:03.641Z,100.00
2023-01-09T18:07:05.780Z,100.00
2023-01-09T18:12:08.457Z,100.00
2023-01-09T18:17:13.325Z,100.00
2023-01-09T18:22:15.724Z,100.00
2023-01-09T18:27:18.025Z,100.00
2023-01-09T18:32:20.300Z,100.00
2023-01-09T18:37:22.405Z,100.00
2023-01-09T18:42:24.632Z,100.00
2023-01-09T18:47:26.686Z,100.00
2023-01-09T18:52:29.147Z,100.00
2023-01-09T18:57:31.222Z,100.00
2023-01-09T19:02:33.487Z,100.00
2023-01-09T19:07:36.019Z,100.00
2023-01-09T19:12:38.593Z,100.00
2023-01-09T19:17:41.274Z,100.00
2023-01-09T19:22:43.783Z,100.00
2023-01-09T19:27:46.602Z,100.00
2023-01-09T19:32:50.000Z,100.00
2023-01-09T19:37:52.633Z,100.00
2023-01-09T19:42:56.397Z,100.00
2023-01-09T19:47:58.929Z,100.00
2023-01-09T19:53:01.408Z,100.00
2023-01-09T19:58:04.264Z,100.00
2023-01-09T20:03:06.659Z,100.00
2023-01-09T20:08:09.420Z,100.00
2023-01-09T20:13:13.028Z,100.00
2023-01-09T20:18:15.924Z,100.00
2023-01-09T20:23:22.465Z,100.00
2023-01-09T20:28:26.215Z,100.00
2023-01-09T20:33:28.683Z,100.00
2023-01-09T20:38:31.892Z,100.00
2023-01-09T20:43:34.697Z,100.00
2023-01-09T20:48:37.169Z,100.00
2023-01-09T20:53:47.400Z,100.00
2023-01-09T20:58:49.737Z,100.00
2023-01-09T21:03:54.517Z,100.00
2023-01-09T21:08:56.696Z,100.00
2023-01-09T21:13:59.845Z,100.00
2023-01-09T21:19:01.972Z,100.00
2023-01-09T21:24:04.642Z,100.00
2023-01-09T21:29:08.435Z,100.00
2023-01-09T21:34:14.716Z,100.00
2023-01-09T21:39:20.065Z,100.00
2023-01-09T21:44:40.942Z,100.00
2023-01-09T21:49:44.791Z,100.00
2023-01-09T21:54:47.223Z,100.00
2023-01-09T21:59:49.323Z,100.00
2023-01-09T22:04:51.590Z,100.00
2023-01-09T22:09:53.637Z,100.00
2023-01-09T22:14:55.775Z,100.00
2023-01-09T22:19:57.935Z,100.00
2023-01-09T22:25:01.509Z,100.00
2023-01-09T22:30:03.861Z,100.00
2023-01-09T22:35:07.076Z,100.00
2023-01-09T22:40:10.226Z,100.00
2023-01-09T22:45:12.504Z,100.00
2023-01-09T22:50:15.302Z,100.00
2023-01-09T22:55:18.382Z,100.00
2023-01-09T23:00:20.657Z,100.00
2023-01-09T23:05:22.728Z,100.00
2023-01-09T23:10:24.916Z,100.00
2023-01-09T23:15:27.019Z,100.00
2023-01-09T23:20:29.068Z,100.00
2023-01-09T23:25:31.440Z,100.00
2023-01-09T23:30:33.438Z,100.00
2023-01-09T23:35:35.719Z,100.00
2023-01-09T23:40:41.460Z,100.00
2023-01-09T23:45:46.037Z,100.00
2023-01-09T23:50:54.146Z,100.00
2023-01-09T23:55:56.383Z,100.00
